Time;durP1;ratioP1;P1;durP2;ratioP2;P2;SDS_P1;SDS_P2;PMS_P1;PMS_P2;Temp;Humidity;BMP_temperature;BMP_pressure;BME280_temperature;BME280_humidity;BME280_pressure;Samples;Min_cycle;Max_cycle;Signal;HPM_P1;HPM_P2
2022/03/26 00:00:54;;;;;;;25.35;11.27;;;;;;;6.94;56.08;101476.34;5569431;32;34525;-65
2022/03/26 00:03:57;;;;;;;22.65;10.02;;;;;;;6.88;56.16;101463.63;5569822;32;34296;-65
2022/03/26 00:06:59;;;;;;;25.88;10.80;;;;;;;6.82;56.12;101471.19;5569449;32;34002;-65
2022/03/26 00:10:06;;;;;;;30.35;11.57;;;;;;;6.76;56.32;101471.66;5569555;32;34588;-65
2022/03/26 00:13:09;;;;;;;25.65;9.93;;;;;;;6.72;56.72;101475.47;5569516;32;33997;-64
2022/03/26 00:16:12;;;;;;;20.83;10.52;;;;;;;6.74;56.85;101479.66;5569694;32;34618;-65
2022/03/26 00:19:15;;;;;;;29.58;10.93;;;;;;;6.73;56.95;101471.88;5569318;32;33900;-65
2022/03/26 00:22:18;;;;;;;24.80;10.43;;;;;;;6.75;57.20;101478.72;5569357;32;33878;-65
2022/03/26 00:25:21;;;;;;;21.87;10.48;;;;;;;6.68;57.19;101474.84;5555472;32;33945;-65
2022/03/26 00:28:24;;;;;;;27.52;11.02;;;;;;;6.61;57.28;101468.38;5569421;32;34346;-65
2022/03/26 00:31:29;;;;;;;23.58;10.25;;;;;;;6.57;57.58;101469.56;5569080;32;34211;-65
2022/03/26 00:34:33;;;;;;;31.58;11.70;;;;;;;6.55;57.59;101467.03;5569681;32;34151;-65
2022/03/26 00:37:40;;;;;;;23.15;11.02;;;;;;;6.54;57.78;101467.97;5571460;32;33378;-65
2022/03/26 00:40:43;;;;;;;24.45;10.15;;;;;;;6.57;57.62;101463.44;5571260;32;34570;-65
2022/03/26 00:43:46;;;;;;;31.55;10.65;;;;;;;6.59;57.53;101462.34;5571425;32;34187;-64
2022/03/26 00:46:49;;;;;;;21.20;10.57;;;;;;;6.63;57.76;101455.94;5571485;32;34420;-63
2022/03/26 00:49:51;;;;;;;22.60;9.90;;;;;;;6.63;57.58;101458.56;5571279;32;34037;-65
2022/03/26 00:52:54;;;;;;;30.10;10.77;;;;;;;6.61;57.69;101451.72;5571359;32;34545;-65
2022/03/26 00:55:57;;;;;;;24.63;10.77;;;;;;;6.58;57.76;101451.94;5571732;32;34077;-64
2022/03/26 00:59:00;;;;;;;31.33;10.77;;;;;;;6.56;57.84;101457.31;5571176;32;33936;-63
2022/03/26 01:02:03;;;;;;;29.90;10.77;;;;;;;6.51;58.18;101448.94;5571113;32;34154;-63
2022/03/26 01:05:07;;;;;;;21.45;10.68;;;;;;;6.47;58.41;101458.03;5557668;32;34018;-63
2022/03/26 01:08:10;;;;;;;27.80;11.65;;;;;;;6.49;58.56;101456.09;5571151;32;34095;-63
2022/03/26 01:11:13;;;;;;;24.60;10.32;;;;;;;6.51;58.81;101452.41;5571293;32;33977;-63
2022/03/26 01:14:16;;;;;;;23.05;9.80;;;;;;;6.41;59.44;101454.03;5571144;32;34332;-63
2022/03/26 01:17:19;;;;;;;22.08;10.73;;;;;;;6.39;60.18;101455.94;5571162;32;34136;-63
2022/03/26 01:20:22;;;;;;;22.85;10.93;;;;;;;6.38;60.22;101451.66;5570996;32;34785;-63
2022/03/26 01:23:25;;;;;;;22.02;10.80;;;;;;;6.37;60.67;101454.41;5570898;32;34569;-64
2022/03/26 01:26:28;;;;;;;26.35;10.20;;;;;;;6.28;61.10;101455.94;5570988;32;34069;-64
2022/03/26 01:29:31;;;;;;;19.73;10.07;;;;;;;6.23;61.38;101446.69;5570378;32;34501;-63
2022/03/26 01:32:33;;;;;;;24.25;10.15;;;;;;;6.15;61.47;101446.41;5570005;32;34187;-64
2022/03/26 01:35:36;;;;;;;30.92;10.40;;;;;;;6.08;61.92;101438.13;5569977;32;34583;-64
2022/03/26 01:38:39;;;;;;;27.05;9.93;;;;;;;6.01;62.16;101442.97;5569906;32;34004;-64
2022/03/26 01:41:42;;;;;;;26.77;11.02;;;;;;;5.95;62.60;101446.09;5569920;32;34793;-63
2022/03/26 01:44:45;;;;;;;22.83;11.77;;;;;;;5.97;62.75;101446.78;5569807;32;34701;-63
2022/03/26 01:47:48;;;;;;;25.25;12.98;;;;;;;5.93;63.36;101445.34;5569461;32;34083;-63
2022/03/26 01:50:50;;;;;;;32.45;12.40;;;;;;;6.03;64.12;101443.72;5570036;32;34680;-64
2022/03/26 01:53:53;;;;;;;28.98;13.20;;;;;;;6.03;63.50;101435.81;5569713;32;33900;-63
2022/03/26 01:56:56;;;;;;;27.13;12.43;;;;;;;5.92;63.89;101442.81;5569641;32;34078;-65
2022/03/26 02:00:00;;;;;;;27.35;12.32;;;;;;;5.85;64.26;101442.41;5569692;32;34568;-64
2022/03/26 02:03:03;;;;;;;29.00;12.60;;;;;;;5.79;64.34;101436.72;5569548;32;34886;-65
2022/03/26 02:06:07;;;;;;;29.60;13.82;;;;;;;5.75;64.17;101437.91;5569549;32;34731;-65
2022/03/26 02:09:12;;;;;;;32.45;13.85;;;;;;;5.72;64.33;101441.59;5569504;32;34663;-64
2022/03/26 02:12:25;;;;;;;30.10;14.05;;;;;;;5.75;64.62;101433.50;5569546;32;34736;-63
2022/03/26 02:15:28;;;;;;;26.48;14.20;;;;;;;5.74;64.81;101433.59;5569551;32;33970;-64
2022/03/26 02:18:31;;;;;;;28.15;11.80;;;;;;;5.67;64.93;101441.09;5569868;32;33929;-64
2022/03/26 02:21:35;;;;;;;26.80;14.18;;;;;;;5.61;65.22;101437.13;5569488;32;33902;-64
2022/03/26 02:24:38;;;;;;;28.85;13.90;;;;;;;5.64;65.28;101431.62;5569376;32;33903;-64
2022/03/26 02:27:40;;;;;;;27.50;13.95;;;;;;;5.56;65.79;101426.09;5569339;32;34678;-63
2022/03/26 02:30:43;;;;;;;28.92;14.40;;;;;;;5.49;66.51;101429.25;5552203;32;141825;-63
2022/03/26 02:33:46;;;;;;;31.62;15.27;;;;;;;5.41;66.62;101435.06;5570274;32;34911;-64
2022/03/26 02:36:49;;;;;;;35.67;14.68;;;;;;;5.40;66.98;101433.37;5557342;32;34638;-64
2022/03/26 02:39:51;;;;;;;32.53;15.32;;;;;;;5.52;67.38;101432.50;5570350;32;34027;-64
2022/03/26 02:42:54;;;;;;;36.55;15.73;;;;;;;5.68;67.10;101430.44;5570387;32;33914;-64
2022/03/26 02:45:57;;;;;;;41.08;16.62;;;;;;;5.41;68.08;101429.81;5570253;32;34049;-64
2022/03/26 02:49:00;;;;;;;39.90;17.05;;;;;;;5.31;69.14;101435.81;5570385;32;33886;-64
2022/03/26 02:52:03;;;;;;;38.22;15.15;;;;;;;5.16;70.56;101433.31;5570222;32;34709;-64
2022/03/26 02:55:09;;;;;;;33.25;14.32;;;;;;;5.15;71.21;101441.31;5570255;32;33993;-64
2022/03/26 02:58:12;;;;;;;26.73;13.75;;;;;;;5.12;72.70;101436.28;5569489;32;34836;-64
2022/03/26 03:01:15;;;;;;;26.05;13.90;;;;;;;5.10;72.78;101433.75;5570146;32;33976;-64
2022/03/26 03:04:20;;;;;;;32.03;15.25;;;;;;;5.16;73.63;101437.75;5570100;32;34219;-64
2022/03/26 03:07:23;;;;;;;34.40;14.70;;;;;;;5.08;74.37;101435.62;5570244;32;34469;-64
2022/03/26 03:10:27;;;;;;;31.70;13.00;;;;;;;5.10;74.82;101436.38;5570127;32;33961;-64
2022/03/26 03:13:30;;;;;;;25.85;12.57;;;;;;;5.05;75.42;101437.63;5570166;32;34090;-64
2022/03/26 03:16:33;;;;;;;28.30;14.25;;;;;;;4.94;75.78;101430.50;5570074;32;34622;-64
2022/03/26 03:19:36;;;;;;;32.15;13.20;;;;;;;4.90;75.74;101436.91;5570310;32;33958;-64
2022/03/26 03:22:39;;;;;;;27.50;12.05;;;;;;;4.84;76.22;101426.84;5569889;32;34333;-65
2022/03/26 03:25:41;;;;;;;32.20;13.20;;;;;;;4.83;76.48;101430.41;5570400;32;34550;-64
2022/03/26 03:28:44;;;;;;;26.73;13.55;;;;;;;4.76;76.99;101429.97;5570172;32;33929;-65
2022/03/26 03:31:49;;;;;;;28.27;14.20;;;;;;;4.66;77.32;101434.16;5569973;32;34760;-64
2022/03/26 03:34:52;;;;;;;27.52;13.77;;;;;;;4.61;77.67;101440.69;5569845;32;34166;-64
2022/03/26 03:37:55;;;;;;;26.90;13.75;;;;;;;4.53;77.83;101429.84;5556310;32;34650;-64
2022/03/26 03:40:58;;;;;;;28.17;13.48;;;;;;;4.49;78.01;101423.97;5569773;32;34664;-64
2022/03/26 03:44:02;;;;;;;28.15;13.23;;;;;;;4.47;77.00;101425.00;5556150;32;34104;-64
2022/03/26 03:47:05;;;;;;;27.25;14.00;;;;;;;4.43;76.69;101423.53;5569820;32;34121;-64
2022/03/26 03:50:09;;;;;;;28.15;13.30;;;;;;;4.40;76.25;101424.59;5569633;32;34018;-64
2022/03/26 03:53:15;;;;;;;25.95;13.13;;;;;;;4.39;76.36;101417.66;5556308;32;33960;-65
2022/03/26 03:56:18;;;;;;;25.67;12.43;;;;;;;4.40;75.83;101413.25;5569709;32;34454;-64
2022/03/26 03:59:20;;;;;;;39.13;13.73;;;;;;;4.37;75.48;101423.00;5555989;32;35101;-65
2022/03/26 04:02:23;;;;;;;25.95;13.30;;;;;;;4.36;75.35;101426.56;5569534;32;34633;-64
2022/03/26 04:05:26;;;;;;;27.23;13.65;;;;;;;4.35;75.14;101417.03;5569434;32;34126;-64
2022/03/26 04:08:29;;;;;;;23.70;11.77;;;;;;;4.32;74.93;101429.50;5569591;32;34652;-64
2022/03/26 04:11:32;;;;;;;28.48;11.70;;;;;;;4.31;75.14;101425.19;5569293;32;34398;-64
2022/03/26 04:14:35;;;;;;;26.23;12.90;;;;;;;4.23;75.34;101423.06;5569777;32;34369;-64
2022/03/26 04:17:39;;;;;;;24.35;11.85;;;;;;;4.16;75.46;101431.47;5569422;32;34404;-64
2022/03/26 04:20:42;;;;;;;25.30;11.12;;;;;;;4.12;75.67;101436.06;5569196;32;34623;-63
2022/03/26 04:23:45;;;;;;;26.37;12.10;;;;;;;4.24;75.44;101434.44;5569220;32;34597;-64
2022/03/26 04:26:48;;;;;;;24.35;12.25;;;;;;;4.59;74.28;101443.44;5569191;32;34702;-63
2022/03/26 04:29:50;;;;;;;30.40;12.40;;;;;;;4.47;74.19;101435.50;5568964;32;34035;-64
2022/03/26 04:32:53;;;;;;;26.83;12.68;;;;;;;4.36;74.78;101437.06;5569470;32;33884;-65
2022/03/26 04:35:57;;;;;;;26.50;12.80;;;;;;;4.32;75.14;101435.59;5569273;32;34119;-65
2022/03/26 04:39:00;;;;;;;27.40;12.52;;;;;;;4.25;75.26;101436.97;5568894;32;33981;-65
2022/03/26 04:42:03;;;;;;;24.67;12.37;;;;;;;4.21;75.41;101440.72;5555277;32;34629;-65
2022/03/26 04:45:07;;;;;;;30.23;12.27;;;;;;;4.21;75.29;101440.72;5569143;32;34259;-65
2022/03/26 04:48:10;;;;;;;26.62;12.57;;;;;;;4.21;75.43;101448.59;5568739;32;35135;-66
2022/03/26 04:51:14;;;;;;;25.83;11.60;;;;;;;4.20;75.53;101446.94;5568802;32;33978;-65
2022/03/26 04:54:16;;;;;;;28.73;12.77;;;;;;;4.19;75.66;101450.50;5568672;32;34073;-65
2022/03/26 04:57:19;;;;;;;34.80;12.40;;;;;;;4.20;75.76;101446.09;5568580;32;34353;-65
2022/03/26 05:00:22;;;;;;;27.10;10.40;;;;;;;4.21;75.81;101445.97;5568812;32;34032;-65
2022/03/26 05:03:25;;;;;;;19.17;10.30;;;;;;;4.59;74.11;101445.22;5568741;32;33983;-65
2022/03/26 05:06:28;;;;;;;25.23;10.70;;;;;;;4.77;72.82;101449.22;5568326;32;34039;-65
2022/03/26 05:09:31;;;;;;;24.95;11.25;;;;;;;4.76;72.59;101443.13;5554797;32;34682;-65
2022/03/26 05:12:33;;;;;;;22.33;11.40;;;;;;;4.74;72.35;101445.00;5568484;32;33996;-65
2022/03/26 05:15:36;;;;;;;23.42;11.85;;;;;;;4.66;72.61;101451.72;5568419;32;34334;-65
2022/03/26 05:18:39;;;;;;;25.83;10.57;;;;;;;4.66;72.68;101449.09;5568264;32;34142;-65
2022/03/26 05:21:42;;;;;;;23.58;9.95;;;;;;;4.70;72.64;101455.81;5569673;32;34195;-65
2022/03/26 05:24:45;;;;;;;20.33;10.00;;;;;;;4.78;72.36;101450.91;5571078;32;35246;-65
2022/03/26 05:27:52;;;;;;;24.73;11.73;;;;;;;4.91;72.17;101458.78;5570979;32;34505;-66
2022/03/26 05:30:55;;;;;;;24.27;10.75;;;;;;;4.99;72.21;101470.47;5570929;32;34632;-66
2022/03/26 05:33:58;;;;;;;22.62;10.73;;;;;;;5.22;71.17;101471.53;5571212;32;34526;-65
2022/03/26 05:37:00;;;;;;;20.95;9.35;;;;;;;5.33;70.70;101471.59;5570901;32;34571;-66
2022/03/26 05:40:04;;;;;;;24.25;10.43;;;;;;;5.38;70.43;101468.63;5570965;32;34615;-65
2022/03/26 05:43:08;;;;;;;20.42;9.80;;;;;;;5.44;70.30;101469.06;5570945;32;34121;-65
2022/03/26 05:46:13;;;;;;;24.02;10.65;;;;;;;5.58;69.78;101475.97;5570925;32;34657;-65
2022/03/26 05:49:16;;;;;;;20.58;9.85;;;;;;;5.66;69.55;101469.19;5571078;32;34007;-66
2022/03/26 05:52:19;;;;;;;23.98;9.35;;;;;;;5.80;68.87;101472.66;5570753;32;34195;-65
2022/03/26 05:55:22;;;;;;;18.62;8.57;;;;;;;6.06;67.73;101479.53;5571157;32;35211;-66
2022/03/26 05:58:25;;;;;;;18.12;8.32;;;;;;;6.11;66.55;101474.75;5570881;32;33962;-65
2022/03/26 06:01:28;;;;;;;19.20;8.25;;;;;;;6.26;65.43;101473.63;5570780;32;34550;-64
2022/03/26 06:04:31;;;;;;;21.08;8.93;;;;;;;6.36;64.98;101469.38;5570626;32;34248;-65
2022/03/26 06:07:33;;;;;;;18.85;8.95;;;;;;;6.49;64.51;101477.19;5570783;32;34303;-63
2022/03/26 06:10:36;;;;;;;20.62;8.82;;;;;;;6.61;64.47;101476.28;5570885;32;34695;-64
2022/03/26 06:13:39;;;;;;;22.60;9.60;;;;;;;6.75;64.11;101480.50;5570569;32;34625;-65
2022/03/26 06:16:42;;;;;;;23.60;9.63;;;;;;;7.14;62.64;101473.97;5570608;32;34018;-64
2022/03/26 06:19:45;;;;;;;18.77;8.95;;;;;;;7.22;62.20;101482.13;5570831;32;34171;-64
2022/03/26 06:22:48;;;;;;;18.02;9.63;;;;;;;7.43;61.23;101473.38;5570491;32;34671;-63
2022/03/26 06:25:51;;;;;;;21.52;8.60;;;;;;;7.62;60.36;101482.47;5570354;32;34537;-64
2022/03/26 06:28:53;;;;;;;20.95;8.57;;;;;;;7.87;59.80;101479.56;5570171;32;33975;-65
2022/03/26 06:31:56;;;;;;;22.25;9.40;;;;;;;8.82;56.39;101489.28;5569777;32;33916;-63
2022/03/26 06:34:59;;;;;;;20.15;8.93;;;;;;;9.21;55.88;101486.84;5570280;32;34040;-65
2022/03/26 06:38:01;;;;;;;17.42;8.70;;;;;;;9.13;55.02;101484.87;5570085;32;34276;-65
2022/03/26 06:41:14;;;;;;;24.42;9.48;;;;;;;9.55;54.08;101489.09;5570327;32;35216;-65
2022/03/26 06:44:16;;;;;;;21.60;9.27;;;;;;;10.68;51.21;101478.94;5570337;32;34591;-64
2022/03/26 06:47:19;;;;;;;19.62;8.43;;;;;;;11.13;50.11;101484.44;5570215;32;35215;-64
2022/03/26 06:50:22;;;;;;;18.30;8.32;;;;;;;10.73;49.69;101487.31;5570374;32;34654;-64
2022/03/26 06:53:25;;;;;;;18.75;8.75;;;;;;;11.18;48.74;101501.59;5570189;32;33902;-65
2022/03/26 06:56:27;;;;;;;21.05;9.10;;;;;;;11.21;48.42;101492.53;5569955;32;34806;-65
2022/03/26 06:59:30;;;;;;;18.98;9.15;;;;;;;11.27;47.66;101502.56;5570177;32;34126;-64
2022/03/26 07:02:33;;;;;;;28.33;8.98;;;;;;;12.53;44.52;101495.56;5556539;32;34568;-64
2022/03/26 07:05:37;;;;;;;25.23;9.77;;;;;;;13.56;42.05;101498.25;5569911;32;34023;-65
2022/03/26 07:08:40;;;;;;;18.58;9.07;;;;;;;12.41;44.47;101505.59;5556201;32;34891;-65
2022/03/26 07:11:43;;;;;;;16.35;9.00;;;;;;;12.81;43.47;101502.44;5569810;32;33959;-66
2022/03/26 07:14:45;;;;;;;23.52;9.48;;;;;;;14.11;40.35;101500.44;5570037;32;33884;-65
2022/03/26 07:17:48;;;;;;;27.35;9.48;;;;;;;14.37;39.74;101503.88;5570231;32;33872;-65
2022/03/26 07:20:52;;;;;;;23.40;9.82;;;;;;;14.02;41.00;101504.94;5570103;32;34143;-65
2022/03/26 07:23:56;;;;;;;19.00;9.65;;;;;;;15.46;38.44;101497.06;5569968;32;34123;-65
2022/03/26 07:26:58;;;;;;;18.00;10.15;;;;;;;15.70;37.22;101498.84;5570020;32;33946;-65
2022/03/26 07:30:03;;;;;;;20.33;10.45;;;;;;;14.29;39.82;101501.97;5569758;32;33952;-65
2022/03/26 07:33:06;;;;;;;23.98;10.30;;;;;;;15.26;38.17;101501.13;5569797;32;34641;-64
2022/03/26 07:36:09;;;;;;;21.08;11.18;;;;;;;16.20;36.54;101500.25;5569793;32;34637;-65
2022/03/26 07:39:12;;;;;;;28.10;11.68;;;;;;;14.94;38.37;101495.88;5569688;32;34151;-65
2022/03/26 07:42:16;;;;;;;23.10;11.07;;;;;;;16.42;36.05;101502.94;5569139;32;34010;-66
2022/03/26 07:45:18;;;;;;;26.92;11.12;;;;;;;16.64;35.07;101505.84;5569408;32;34589;-66
2022/03/26 07:48:21;;;;;;;24.55;11.52;;;;;;;17.96;33.33;101504.06;5569606;32;33996;-66
2022/03/26 07:51:24;;;;;;;22.27;11.68;;;;;;;19.54;29.91;101505.50;5569789;32;34030;-66
2022/03/26 07:54:27;;;;;;;24.23;11.43;;;;;;;19.87;29.18;101501.09;5569893;32;34630;-66
2022/03/26 07:57:30;;;;;;;17.75;11.25;;;;;;;21.13;27.88;101503.00;5569959;32;34096;-66
2022/03/26 08:00:33;;;;;;;24.75;11.12;;;;;;;22.06;26.42;101503.56;5569633;32;34019;-66
2022/03/26 08:03:36;;;;;;;27.87;11.95;;;;;;;23.09;25.08;101491.34;5569436;32;34015;-67
2022/03/26 08:06:39;;;;;;;27.85;11.85;;;;;;;22.75;24.70;101486.47;5555945;32;33973;-66
2022/03/26 08:09:42;;;;;;;24.30;11.65;;;;;;;22.36;25.23;101488.41;5569476;32;34348;-66
2022/03/26 08:12:44;;;;;;;28.55;12.18;;;;;;;22.27;25.14;101480.78;5569288;32;34054;-66
2022/03/26 08:15:47;;;;;;;21.83;11.07;;;;;;;21.97;25.59;101475.13;5568858;32;34727;-68
2022/03/26 08:18:50;;;;;;;25.83;11.40;;;;;;;23.78;23.21;101477.47;5569041;32;34615;-67
2022/03/26 08:21:53;;;;;;;21.45;12.13;;;;;;;23.48;23.61;101479.28;5569279;32;34325;-67
2022/03/26 08:24:55;;;;;;;20.77;11.73;;;;;;;21.48;25.15;101483.81;5569010;32;33928;-68
2022/03/26 08:28:04;;;;;;;21.33;11.60;;;;;;;20.59;26.88;101484.28;5568685;32;33980;-67
2022/03/26 08:31:10;;;;;;;24.48;11.75;;;;;;;23.04;23.72;101491.22;5567906;32;34565;-67
2022/03/26 08:34:13;;;;;;;24.12;11.52;;;;;;;23.63;23.25;101485.16;5568793;32;34581;-67
2022/03/26 08:37:16;;;;;;;22.35;11.57;;;;;;;21.07;26.00;101492.16;5555184;32;33609;-67
2022/03/26 08:40:19;;;;;;;19.83;12.00;;;;;;;20.15;27.14;101481.28;5568597;32;34444;-68
2022/03/26 08:43:21;;;;;;;17.73;11.07;;;;;;;20.12;27.26;101487.94;5542026;32;34685;-67
2022/03/26 08:46:24;;;;;;;20.40;11.50;;;;;;;21.91;25.20;101489.47;5568504;32;33987;-67
2022/03/26 08:49:28;;;;;;;25.90;11.93;;;;;;;23.18;23.32;101491.91;5568477;32;35236;-66
2022/03/26 08:52:31;;;;;;;21.73;11.15;;;;;;;25.64;20.77;101493.28;5568424;32;34107;-66
2022/03/26 08:55:33;;;;;;;16.75;10.57;;;;;;;24.14;21.92;101495.56;5568788;32;34160;-66
2022/03/26 08:58:36;;;;;;;17.65;10.10;;;;;;;24.21;22.27;101490.87;5571054;32;34595;-67
2022/03/26 09:01:39;;;;;;;31.10;10.27;;;;;;;22.80;23.47;101492.84;5557276;32;34293;-67
2022/03/26 09:04:42;;;;;;;24.67;9.95;;;;;;;22.06;24.35;101492.75;5571191;32;34055;-67
2022/03/26 09:07:45;;;;;;;26.35;10.75;;;;;;;19.12;27.99;101493.81;5571061;32;33950;-66
2022/03/26 09:10:48;;;;;;;20.20;9.75;;;;;;;18.05;29.94;101476.12;5570789;32;34138;-67
2022/03/26 09:13:51;;;;;;;24.67;10.77;;;;;;;17.74;30.68;101481.72;5570527;32;34663;-66
2022/03/26 09:16:53;;;;;;;22.48;10.07;;;;;;;17.36;30.83;101475.62;5570922;32;34019;-66
2022/03/26 09:19:56;;;;;;;20.88;11.40;;;;;;;16.73;31.95;101480.63;5570797;32;34520;-67
2022/03/26 09:22:59;;;;;;;23.87;11.48;;;;;;;16.60;32.43;101477.75;5570766;32;33975;-66
2022/03/26 09:26:04;;;;;;;20.98;11.52;;;;;;;16.13;33.32;101475.19;5570685;32;33900;-65
2022/03/26 09:29:07;;;;;;;24.92;11.32;;;;;;;16.04;33.80;101467.22;5570455;31;34710;-67
2022/03/26 09:32:10;;;;;;;22.20;11.68;;;;;;;15.93;34.10;101464.94;5570651;32;34054;-66
2022/03/26 09:35:14;;;;;;;25.45;11.82;;;;;;;16.14;33.66;101471.50;5570707;32;33972;-65
2022/03/26 09:38:17;;;;;;;21.62;11.73;;;;;;;16.12;33.67;101470.87;5570453;32;34063;-65
2022/03/26 09:41:22;;;;;;;26.30;10.48;;;;;;;16.09;33.69;101464.84;5570470;32;35459;-66
2022/03/26 09:44:25;;;;;;;18.12;9.18;;;;;;;15.94;33.91;101465.78;5570615;32;33975;-66
2022/03/26 09:47:28;;;;;;;18.25;9.00;;;;;;;15.92;33.33;101462.47;5570402;32;33878;-65
2022/03/26 09:50:31;;;;;;;20.33;8.82;;;;;;;15.81;33.38;101465.53;5570370;32;34112;-65
2022/03/26 09:53:34;;;;;;;20.92;10.15;;;;;;;15.75;34.01;101456.34;5570669;32;33915;-65
2022/03/26 09:56:38;;;;;;;18.10;9.60;;;;;;;16.12;33.29;101462.84;5570174;32;34544;-65
2022/03/26 09:59:41;;;;;;;24.15;10.50;;;;;;;16.16;33.39;101456.12;5570268;32;33923;-65
2022/03/26 10:02:44;;;;;;;20.50;10.20;;;;;;;16.03;33.54;101448.66;5570220;32;33953;-67
2022/03/26 10:05:47;;;;;;;18.08;9.43;;;;;;;16.18;33.30;101452.25;5570745;32;33967;-65
2022/03/26 10:08:50;;;;;;;20.62;9.52;;;;;;;16.11;33.33;101445.09;5556543;32;34059;-64
2022/03/26 10:12:06;;;;;;;22.33;10.27;;;;;;;16.13;33.66;101437.72;5570333;32;34183;-65
2022/03/26 10:15:09;;;;;;;21.08;9.73;;;;;;;16.51;33.43;101439.41;5556932;32;34306;-65
2022/03/26 10:18:12;;;;;;;17.42;8.55;;;;;;;16.58;32.86;101448.44;5569995;32;34710;-65
2022/03/26 10:21:18;;;;;;;24.30;9.05;;;;;;;16.73;31.56;101445.81;5569698;32;33936;-66
2022/03/26 10:24:24;;;;;;;21.87;9.18;;;;;;;16.59;31.87;101436.72;5570037;32;33946;-65
2022/03/26 10:27:32;;;;;;;19.58;9.35;;;;;;;16.77;31.21;101418.47;5556430;32;33938;-65
2022/03/26 10:34:10;;;;;;;18.02;8.25;;;;;;;17.06;31.07;101411.44;5570015;32;34023;-66
2022/03/26 10:37:18;;;;;;;14.40;7.30;;;;;;;17.08;30.12;101412.09;5570315;32;33906;-65
2022/03/26 10:40:28;;;;;;;11.63;5.93;;;;;;;17.17;29.14;101405.63;5570500;32;33855;-65
2022/03/26 10:43:32;;;;;;;13.32;5.82;;;;;;;17.25;27.56;101398.31;5569746;32;34155;-65
2022/03/26 10:46:42;;;;;;;20.60;5.72;;;;;;;17.19;27.68;101403.56;5569919;32;34654;-65
2022/03/26 10:49:45;;;;;;;12.82;5.62;;;;;;;17.23;27.28;101384.25;5570037;32;34647;-65
2022/03/26 10:52:47;;;;;;;15.13;5.35;;;;;;;17.60;27.63;101391.34;5569842;32;34011;-65
2022/03/26 10:55:51;;;;;;;12.65;5.43;;;;;;;17.70;27.07;101391.88;5570007;32;33927;-65
2022/03/26 10:58:54;;;;;;;13.35;5.65;;;;;;;17.90;26.10;101380.53;5556368;32;33932;-65
2022/03/26 11:01:58;;;;;;;12.95;5.18;;;;;;;19.92;23.95;101385.53;5569985;32;34498;-66
2022/03/26 11:05:01;;;;;;;13.80;5.53;;;;;;;22.23;20.71;101382.22;5569727;32;34390;-65
2022/03/26 11:08:08;;;;;;;16.00;5.47;;;;;;;24.30;18.63;101382.94;5570085;32;33934;-66
2022/03/26 11:11:12;;;;;;;11.27;4.78;;;;;;;25.28;17.49;101379.44;5569804;32;33940;-66
2022/03/26 11:14:31;;;;;;;13.32;5.40;;;;;;;25.25;17.27;101382.66;5569674;32;34166;-66
2022/03/26 11:18:04;;;;;;;13.90;5.47;;;;;;;26.42;15.84;101372.91;5569898;32;34673;-66
2022/03/26 11:21:38;;;;;;;18.02;6.12;;;;;;;27.87;14.55;101371.50;5569892;32;34051;-67
2022/03/26 11:24:59;;;;;;;12.35;6.32;;;;;;;26.66;15.21;101368.91;5569622;32;33939;-66
2022/03/26 11:28:36;;;;;;;17.30;7.45;;;;;;;25.83;16.46;101361.53;5569690;32;34364;-69
2022/03/26 11:31:48;;;;;;;19.92;8.50;;;;;;;28.05;14.35;101355.59;5569722;32;33975;-67
2022/03/26 11:34:59;;;;;;;18.50;7.78;;;;;;;27.58;13.72;101349.97;5569471;32;33956;-68
2022/03/26 11:38:02;;;;;;;14.65;7.50;;;;;;;26.41;14.60;101352.19;5569585;32;34356;-68
2022/03/26 11:41:09;;;;;;;15.88;8.57;;;;;;;26.08;14.59;101355.72;5555668;32;32874;-68
2022/03/26 11:44:14;;;;;;;15.88;9.18;;;;;;;25.79;14.69;101354.94;5555864;32;34089;-68
2022/03/26 11:50:41;;;;;;;22.48;9.68;;;;;;;26.20;14.63;101348.28;5555419;32;33363;-68
2022/03/26 11:53:47;;;;;;;17.48;9.77;;;;;;;24.98;15.57;101338.94;5569419;32;34038;-68
2022/03/26 11:57:14;;;;;;;14.95;9.00;;;;;;;26.39;14.29;101330.66;5569429;32;34583;-68
2022/03/26 12:00:20;;;;;;;19.95;9.90;;;;;;;25.86;14.09;101333.84;5569294;32;33988;-68
2022/03/26 12:03:28;;;;;;;15.23;9.57;;;;;;;25.71;14.51;101325.44;5569405;32;33978;-67
2022/03/26 12:06:41;;;;;;;17.27;11.23;;;;;;;27.20;13.56;101325.53;5555137;32;33382;-67
2022/03/26 12:09:45;;;;;;;22.48;11.23;;;;;;;27.12;13.88;101318.63;5569215;32;34701;-67
2022/03/26 12:13:00;;;;;;;17.20;10.48;;;;;;;27.46;13.81;101304.81;5555617;32;34120;-68
2022/03/26 12:16:07;;;;;;;27.08;11.27;;;;;;;26.67;14.21;101312.56;5555700;32;34091;-67
2022/03/26 12:19:10;;;;;;;22.20;10.25;;;;;;;27.61;14.05;101314.00;5568700;32;34064;-68
2022/03/26 12:22:24;;;;;;;18.52;9.48;;;;;;;28.00;13.14;101317.34;5568986;32;33889;-68
2022/03/26 12:25:46;;;;;;;18.98;11.02;;;;;;;26.66;13.65;101308.19;5569198;32;33975;-67
2022/03/26 12:28:49;;;;;;;20.00;11.32;;;;;;;26.47;14.15;101306.84;5569375;32;33969;-67
2022/03/26 12:31:52;;;;;;;21.90;10.77;;;;;;;26.81;13.81;101305.69;5571054;32;34636;-68
2022/03/26 12:35:04;;;;;;;23.27;11.10;;;;;;;26.44;14.35;101291.00;5571321;32;34670;-67
2022/03/26 12:38:08;;;;;;;20.15;10.35;;;;;;;27.79;13.68;101290.19;5571543;32;34643;-68
2022/03/26 12:41:10;;;;;;;18.23;9.18;;;;;;;26.81;14.23;101284.72;5570803;32;34302;-68
2022/03/26 12:44:15;;;;;;;15.73;8.82;;;;;;;27.37;13.05;101290.00;5571096;32;34594;-68
2022/03/26 12:47:22;;;;;;;19.85;10.40;;;;;;;29.32;11.84;101282.62;5571446;32;35237;-68
2022/03/26 12:50:25;;;;;;;23.02;9.60;;;;;;;28.09;12.99;101283.03;5557219;32;32931;-68
2022/03/26 12:53:37;;;;;;;15.35;8.75;;;;;;;29.24;12.23;101278.47;5571253;32;34613;-68
2022/03/26 12:56:41;;;;;;;19.77;9.93;;;;;;;28.80;12.07;101274.53;5544566;32;34080;-68
2022/03/26 12:59:55;;;;;;;20.60;9.77;;;;;;;29.13;12.66;101267.78;5571028;32;34030;-69
2022/03/26 13:03:06;;;;;;;19.70;10.75;;;;;;;28.03;13.20;101277.84;5570339;32;34318;-67
2022/03/26 13:06:10;;;;;;;16.92;10.38;;;;;;;26.11;14.36;101254.59;5570773;32;34466;-69
2022/03/26 13:09:14;;;;;;;17.65;10.32;;;;;;;27.78;13.20;101259.38;5570699;32;34627;-68
2022/03/26 13:12:28;;;;;;;16.92;10.48;;;;;;;28.90;12.70;101247.25;5571023;32;33905;-67
2022/03/26 13:15:33;;;;;;;18.23;10.90;;;;;;;29.62;12.07;101246.31;5557733;32;34321;-67
2022/03/26 13:18:40;;;;;;;20.30;10.68;;;;;;;28.84;12.55;101243.66;5570984;32;34730;-67
2022/03/26 13:21:47;;;;;;;21.42;11.18;;;;;;;28.31;12.70;101230.28;5557248;32;34175;-67
2022/03/26 13:24:51;;;;;;;21.33;10.80;;;;;;;27.25;13.55;101233.75;5571061;32;33994;-68
2022/03/26 13:27:54;;;;;;;20.00;10.23;;;;;;;29.27;12.41;101230.66;5571128;32;34009;-67
2022/03/26 13:30:57;;;;;;;19.12;9.80;;;;;;;29.73;12.12;101221.41;5570928;32;33955;-67
2022/03/26 13:34:12;;;;;;;18.58;10.75;;;;;;;30.48;11.23;101222.41;5557329;32;34684;-67
2022/03/26 13:37:17;;;;;;;19.52;9.13;;;;;;;28.87;12.39;101225.91;5570923;32;34457;-67
2022/03/26 13:40:32;;;;;;;16.55;8.63;;;;;;;26.92;13.29;101214.88;5570976;32;34383;-67
2022/03/26 13:43:35;;;;;;;18.58;8.77;;;;;;;26.60;13.32;101217.47;5570352;32;34624;-67
2022/03/26 13:46:38;;;;;;;15.43;9.13;;;;;;;28.48;12.40;101203.63;5570836;32;34592;-67
2022/03/26 13:49:42;;;;;;;18.25;10.20;;;;;;;28.92;11.92;101215.00;5570650;32;34012;-67
2022/03/26 13:52:48;;;;;;;20.42;10.13;;;;;;;26.90;13.61;101206.16;5570345;32;34752;-67
2022/03/26 13:55:52;;;;;;;22.90;10.68;;;;;;;27.00;13.81;101203.56;5570538;32;33935;-67
2022/03/26 13:58:56;;;;;;;22.67;11.57;;;;;;;28.91;12.72;101189.59;5570236;32;34568;-67
2022/03/26 14:01:58;;;;;;;23.12;11.45;;;;;;;27.59;13.85;101193.47;5570704;32;34725;-67
2022/03/26 14:05:02;;;;;;;22.52;11.60;;;;;;;28.52;13.53;101188.34;5570297;32;34396;-68
2022/03/26 14:08:08;;;;;;;20.83;11.55;;;;;;;28.25;13.27;101196.69;5570628;32;33909;-68
2022/03/26 14:11:11;;;;;;;20.42;10.60;;;;;;;27.36;13.88;101180.19;5570516;32;33922;-68
2022/03/26 14:14:14;;;;;;;32.95;11.43;;;;;;;25.88;14.67;101179.47;5556956;32;33937;-68